createdAt,value
2022-12-04T00:01:25.274Z,3.31
2022-12-04T00:03:47.982Z,3.26
2022-12-04T00:06:12.087Z,3.23
2022-12-04T00:08:35.513Z,3.23
2022-12-04T00:10:58.492Z,3.24
2022-12-04T00:13:21.209Z,3.19
2022-12-04T00:15:44.008Z,3.19
2022-12-04T00:18:07.163Z,3.24
2022-12-04T00:20:29.824Z,3.19
2022-12-04T00:22:53.166Z,3.19
2022-12-04T00:25:15.819Z,3.23
2022-12-04T00:27:38.613Z,3.17
2022-12-04T00:30:01.248Z,3.16
2022-12-04T00:32:23.808Z,3.15
2022-12-04T00:34:46.368Z,3.16
2022-12-04T00:37:09.277Z,3.22
2022-12-04T00:39:31.828Z,3.23
2022-12-04T00:41:54.487Z,3.20
2022-12-04T00:44:16.984Z,3.27
2022-12-04T00:46:39.825Z,3.36
2022-12-04T00:49:02.864Z,3.43
2022-12-04T00:51:25.925Z,3.44
2022-12-04T00:53:48.659Z,3.50
2022-12-04T00:56:14.997Z,3.54
2022-12-04T00:58:37.943Z,3.54
2022-12-04T01:01:09.034Z,3.60
2022-12-04T01:03:32.315Z,3.63
2022-12-04T01:05:55.488Z,3.64
2022-12-04T01:08:18.348Z,3.63
2022-12-04T01:10:42.233Z,3.58
2022-12-04T01:13:05.112Z,3.64
2022-12-04T01:15:27.881Z,3.60
2022-12-04T01:17:50.740Z,3.58
2022-12-04T01:20:14.008Z,3.55
2022-12-04T01:22:36.633Z,3.53
2022-12-04T01:24:59.550Z,3.61
2022-12-04T01:27:22.793Z,3.64
2022-12-04T01:29:46.167Z,3.64
2022-12-04T01:32:08.863Z,3.67
2022-12-04T01:34:31.453Z,3.67
2022-12-04T01:36:54.138Z,3.68
2022-12-04T01:39:17.125Z,3.65
2022-12-04T01:41:40.583Z,3.68
2022-12-04T01:44:14.435Z,3.60
2022-12-04T01:46:37.564Z,3.51
2022-12-04T01:49:00.491Z,3.43
2022-12-04T01:51:27.018Z,3.37
2022-12-04T01:53:54.261Z,3.27
2022-12-04T01:56:18.377Z,3.24
2022-12-04T01:58:44.293Z,3.19
2022-12-04T02:01:09.060Z,3.12
2022-12-04T02:03:32.330Z,3.12
2022-12-04T02:05:54.921Z,3.06
2022-12-04T02:08:18.021Z,3.05
2022-12-04T02:10:58.882Z,3.02
2022-12-04T02:13:28.706Z,3.02
2022-12-04T02:16:01.161Z,2.99
2022-12-04T02:18:31.959Z,2.99
2022-12-04T02:21:18.522Z,2.98
2022-12-04T02:23:56.441Z,2.95
2022-12-04T02:26:57.035Z,2.92
2022-12-04T02:29:43.933Z,2.93
2022-12-04T02:32:45.607Z,2.89
2022-12-04T02:35:29.336Z,2.92
2022-12-04T02:38:01.270Z,2.96
2022-12-04T02:40:31.909Z,2.91
2022-12-04T02:43:08.420Z,2.93
2022-12-04T02:45:37.189Z,2.93
2022-12-04T02:48:02.763Z,2.92
2022-12-04T02:50:27.047Z,2.92
2022-12-04T02:53:23.402Z,2.91
2022-12-04T02:55:54.680Z,2.89
2022-12-04T02:58:25.576Z,2.82
2022-12-04T03:00:50.673Z,2.84
2022-12-04T03:03:25.494Z,2.82
2022-12-04T03:06:07.666Z,2.75
2022-12-04T03:08:37.511Z,2.72
2022-12-04T03:11:01.543Z,2.71
2022-12-04T03:13:31.372Z,2.68
2022-12-04T03:16:00.784Z,2.69
2022-12-04T03:18:37.927Z,2.65
2022-12-04T03:21:05.612Z,2.71
2022-12-04T03:23:39.272Z,2.71
2022-12-04T03:26:01.818Z,2.71
2022-12-04T03:28:52.812Z,2.66
2022-12-04T03:31:21.775Z,2.69
2022-12-04T03:33:47.600Z,2.68
2022-12-04T03:36:31.600Z,2.65
2022-12-04T03:38:58.884Z,2.64
2022-12-04T03:41:27.248Z,2.62
2022-12-04T03:44:12.769Z,2.64
2022-12-04T03:46:49.865Z,2.60
2022-12-04T03:49:26.252Z,2.60
2022-12-04T03:52:08.214Z,2.55
2022-12-04T03:54:35.288Z,2.51
2022-12-04T03:57:05.369Z,2.52
2022-12-04T03:59:34.478Z,2.48
2022-12-04T04:02:00.334Z,2.50
2022-12-04T04:04:29.588Z,2.51
2022-12-04T04:06:59.404Z,2.47
2022-12-04T04:09:25.592Z,2.48
2022-12-04T04:11:57.020Z,2.47
2022-12-04T04:14:46.517Z,2.48
2022-12-04T04:17:37.934Z,2.47
2022-12-04T04:20:28.205Z,2.50
2022-12-04T04:23:13.629Z,2.44
2022-12-04T04:25:40.500Z,2.36
2022-12-04T04:28:03.206Z,2.38
2022-12-04T04:30:27.850Z,2.33
2022-12-04T04:33:06.268Z,2.37
2022-12-04T04:35:57.885Z,2.33
2022-12-04T04:38:41.587Z,2.33
2022-12-04T04:41:12.792Z,2.34
2022-12-04T04:43:48.914Z,2.33
2022-12-04T04:46:17.418Z,2.31
2022-12-04T04:48:47.599Z,2.36
2022-12-04T04:51:11.504Z,2.34
2022-12-04T04:53:39.016Z,2.36
2022-12-04T04:56:01.910Z,2.36
2022-12-04T04:58:24.421Z,2.34
2022-12-04T05:00:58.862Z,2.30
2022-12-04T05:03:21.543Z,2.27
2022-12-04T05:05:44.118Z,2.27
2022-12-04T05:08:07.245Z,2.21
2022-12-04T05:10:29.751Z,2.19
2022-12-04T05:12:52.370Z,2.19
2022-12-04T05:15:15.144Z,2.19
2022-12-04T05:17:38.072Z,2.20
2022-12-04T05:20:00.896Z,2.23
2022-12-04T05:22:29.993Z,2.23
2022-12-04T05:24:53.371Z,2.27
2022-12-04T05:27:16.035Z,2.29
2022-12-04T05:29:40.047Z,2.23
2022-12-04T05:32:03.100Z,2.21
2022-12-04T05:34:25.652Z,2.19
2022-12-04T05:36:48.284Z,2.17
2022-12-04T05:39:10.804Z,2.17
2022-12-04T05:41:33.423Z,2.19
2022-12-04T05:43:56.045Z,2.19
2022-12-04T05:46:18.597Z,2.17
2022-12-04T05:48:41.253Z,2.14
2022-12-04T05:51:08.263Z,2.13
2022-12-04T05:53:30.736Z,2.19
2022-12-04T05:55:57.731Z,2.17
2022-12-04T05:58:20.233Z,2.09
2022-12-04T06:00:43.001Z,2.09
2022-12-04T06:03:05.575Z,2.10
2022-12-04T06:05:28.199Z,2.09
2022-12-04T06:07:50.769Z,2.05
2022-12-04T06:10:13.448Z,2.06
2022-12-04T06:12:36.058Z,2.07
2022-12-04T06:14:58.650Z,2.05
2022-12-04T06:17:21.347Z,2.05
2022-12-04T06:19:44.205Z,2.03
2022-12-04T06:22:06.743Z,2.05
2022-12-04T06:24:29.341Z,2.07
2022-12-04T06:27:26.160Z,2.12
2022-12-04T06:29:39.747Z,2.16
2022-12-04T06:32:02.519Z,2.14
2022-12-04T06:34:25.340Z,2.21
2022-12-04T06:36:47.960Z,2.21
2022-12-04T06:39:14.195Z,2.21
2022-12-04T06:41:40.973Z,2.27
2022-12-04T06:44:03.778Z,2.33
2022-12-04T06:46:31.107Z,2.27
2022-12-04T06:48:55.569Z,2.30
2022-12-04T06:51:27.372Z,2.27
2022-12-04T06:53:49.993Z,2.29
2022-12-04T06:56:18.108Z,2.33
2022-12-04T06:58:40.809Z,2.37
2022-12-04T07:01:12.269Z,2.34
2022-12-04T07:03:35.664Z,2.41
2022-12-04T07:05:58.245Z,2.37
2022-12-04T07:08:21.100Z,2.36
2022-12-04T07:10:43.933Z,2.36
2022-12-04T07:13:07.699Z,2.38
2022-12-04T07:15:30.742Z,2.40
2022-12-04T07:17:53.392Z,2.41
2022-12-04T07:20:16.122Z,2.45
2022-12-04T07:22:38.682Z,2.50
2022-12-04T07:25:01.214Z,2.55
2022-12-04T07:27:23.860Z,2.58
2022-12-04T07:29:46.428Z,2.55
2022-12-04T07:32:09.341Z,2.45
2022-12-04T07:34:32.131Z,2.40
2022-12-04T07:36:54.688Z,2.42
2022-12-04T07:39:17.207Z,2.57
2022-12-04T07:41:39.854Z,2.51
2022-12-04T07:44:03.845Z,2.54
2022-12-04T07:46:28.082Z,2.51
2022-12-04T07:48:50.985Z,2.54
2022-12-04T07:51:16.839Z,2.58
2022-12-04T07:53:40.144Z,2.61
2022-12-04T07:56:04.274Z,2.61
2022-12-04T07:58:26.887Z,2.64
2022-12-04T08:00:49.407Z,2.65
2022-12-04T08:03:12.029Z,2.75
2022-12-04T08:05:34.597Z,2.81
2022-12-04T08:07:57.133Z,2.88
2022-12-04T08:10:19.659Z,2.95
2022-12-04T08:12:42.328Z,2.98
2022-12-04T08:15:05.500Z,2.99
2022-12-04T08:17:28.420Z,3.00
2022-12-04T08:19:51.570Z,3.06
2022-12-04T08:22:14.306Z,3.15
2022-12-04T08:24:37.153Z,3.33
2022-12-04T08:26:59.771Z,3.46
2022-12-04T08:29:22.319Z,3.55
2022-12-04T08:31:44.892Z,3.64
2022-12-04T08:34:08.280Z,3.58
2022-12-04T08:36:31.659Z,3.67
2022-12-04T08:38:55.337Z,3.61
2022-12-04T08:41:24.157Z,3.68
2022-12-04T08:43:47.251Z,3.81
2022-12-04T08:46:13.275Z,3.93
2022-12-04T08:48:36.375Z,3.99
2022-12-04T08:51:00.301Z,4.03
2022-12-04T08:53:24.408Z,4.01
2022-12-04T08:55:47.400Z,4.03
2022-12-04T08:58:10.086Z,4.12
2022-12-04T09:00:32.869Z,4.26
2022-12-04T09:02:58.760Z,4.33
2022-12-04T09:05:21.419Z,4.41
2022-12-04T09:07:46.736Z,4.57
2022-12-04T09:10:10.127Z,4.68
2022-12-04T09:12:33.124Z,4.77
2022-12-04T09:14:55.764Z,4.74
2022-12-04T09:17:18.575Z,4.78
2022-12-04T09:19:41.388Z,4.85
2022-12-04T09:22:04.403Z,4.88
2022-12-04T09:24:29.209Z,4.99
2022-12-04T09:26:52.125Z,5.06
2022-12-04T09:29:15.058Z,4.96
2022-12-04T09:31:38.157Z,5.09
2022-12-04T09:34:02.186Z,5.09
2022-12-04T09:36:45.633Z,5.16
2022-12-04T09:39:10.262Z,5.35
2022-12-04T09:41:36.405Z,5.48
2022-12-04T09:44:04.401Z,5.51
2022-12-04T09:46:35.144Z,5.56
2022-12-04T09:49:03.487Z,5.63
2022-12-04T09:51:27.947Z,5.75
2022-12-04T09:53:50.719Z,5.75
2022-12-04T09:56:22.755Z,5.81
2022-12-04T09:59:18.122Z,5.90
2022-12-04T10:01:55.583Z,5.71
2022-12-04T10:04:19.749Z,5.77
2022-12-04T10:06:48.569Z,5.83
2022-12-04T10:09:23.780Z,5.83
2022-12-04T10:12:04.398Z,5.97
2022-12-04T10:14:48.893Z,5.99
2022-12-04T10:17:33.303Z,6.11
2022-12-04T10:20:11.060Z,6.21
2022-12-04T10:23:03.088Z,6.29
2022-12-04T10:25:27.083Z,6.40
2022-12-04T10:27:59.775Z,6.42
2022-12-04T10:30:24.367Z,6.50
2022-12-04T10:32:50.556Z,6.47
2022-12-04T10:35:30.637Z,6.49
2022-12-04T10:38:09.047Z,6.56
2022-12-04T10:40:42.614Z,6.57
2022-12-04T10:43:43.884Z,6.57
2022-12-04T10:46:10.927Z,6.56
2022-12-04T10:48:40.144Z,6.60
2022-12-04T10:51:03.117Z,6.64
2022-12-04T10:53:35.307Z,6.69
2022-12-04T10:56:12.137Z,6.88
2022-12-04T10:58:34.775Z,6.77
2022-12-04T11:01:05.273Z,6.90
2022-12-04T11:03:29.687Z,7.05
2022-12-04T11:06:10.687Z,7.19
2022-12-04T11:08:44.987Z,6.99
2022-12-04T11:11:11.428Z,6.88
2022-12-04T11:13:34.466Z,6.94
2022-12-04T11:15:58.528Z,6.99
2022-12-04T11:18:25.949Z,7.16
2022-12-04T11:21:05.352Z,7.26
2022-12-04T11:23:51.914Z,7.19
2022-12-04T11:26:16.438Z,7.11
2022-12-04T11:28:43.886Z,7.16
2022-12-04T11:31:10.369Z,7.29
2022-12-04T11:33:49.073Z,7.52
2022-12-04T11:36:31.552Z,7.57
2022-12-04T11:39:07.436Z,7.67
2022-12-04T11:41:33.218Z,7.70
2022-12-04T11:44:00.276Z,7.77
2022-12-04T11:46:26.522Z,7.83
2022-12-04T11:48:49.906Z,7.81
2022-12-04T11:51:43.757Z,7.70
2022-12-04T11:54:32.545Z,7.77
2022-12-04T11:57:02.483Z,7.74
2022-12-04T11:59:43.605Z,7.77
2022-12-04T12:02:23.947Z,7.77
2022-12-04T12:05:05.285Z,7.78
2022-12-04T12:08:14.392Z,7.80
2022-12-04T12:10:49.783Z,7.73
2022-12-04T12:13:45.830Z,7.71
2022-12-04T12:16:19.930Z,7.71
2022-12-04T12:19:24.439Z,7.67
2022-12-04T12:21:53.456Z,7.74
2022-12-04T12:24:24.955Z,7.71
2022-12-04T12:27:20.979Z,7.80
2022-12-04T12:30:04.514Z,7.83
2022-12-04T12:32:35.928Z,7.74
2022-12-04T12:35:00.563Z,7.84
2022-12-04T12:37:31.188Z,7.87
2022-12-04T12:40:10.835Z,7.95
2022-12-04T12:42:43.891Z,7.95
2022-12-04T12:45:34.153Z,7.99
2022-12-04T12:48:02.952Z,7.87
2022-12-04T12:50:33.884Z,7.93
2022-12-04T12:53:01.841Z,8.02
2022-12-04T12:55:31.339Z,8.02
2022-12-04T12:58:15.589Z,7.91
2022-12-04T13:00:45.065Z,7.99
2022-12-04T13:03:32.651Z,7.99
2022-12-04T13:06:03.596Z,8.01
2022-12-04T13:08:35.818Z,7.97
2022-12-04T13:11:05.052Z,7.94
2022-12-04T13:13:31.747Z,7.87
2022-12-04T13:15:59.500Z,7.71
2022-12-04T13:18:33.127Z,7.64
2022-12-04T13:21:00.868Z,7.71
2022-12-04T13:23:50.373Z,7.71
2022-12-04T13:26:15.858Z,7.74
2022-12-04T13:28:49.152Z,7.64
2022-12-04T13:31:40.114Z,7.60
2022-12-04T13:34:47.533Z,7.66
2022-12-04T13:37:16.018Z,7.59
2022-12-04T13:40:00.367Z,7.59
2022-12-04T13:42:26.110Z,7.64
2022-12-04T13:45:00.664Z,7.62
2022-12-04T13:47:33.576Z,7.60
2022-12-04T13:50:18.189Z,7.67
2022-12-04T13:52:42.513Z,7.52
2022-12-04T13:55:05.640Z,7.46
2022-12-04T13:57:28.494Z,7.40
2022-12-04T14:00:05.514Z,7.40
2022-12-04T14:02:37.845Z,7.42
2022-12-04T14:05:09.700Z,7.43
2022-12-04T14:07:34.085Z,7.42
2022-12-04T14:09:59.254Z,7.46
2022-12-04T14:12:29.389Z,7.47
2022-12-04T14:14:58.887Z,7.47
2022-12-04T14:18:16.831Z,7.52
2022-12-04T14:20:41.363Z,7.55
2022-12-04T14:23:20.044Z,7.49
2022-12-04T14:25:43.069Z,7.60
2022-12-04T14:28:25.219Z,7.53
2022-12-04T14:31:10.074Z,7.50
2022-12-04T14:33:38.108Z,7.52
2022-12-04T14:36:21.088Z,7.47
2022-12-04T14:38:47.550Z,7.53
2022-12-04T14:41:10.547Z,7.52
2022-12-04T14:43:40.709Z,7.55
2022-12-04T14:46:23.536Z,7.56
2022-12-04T14:49:07.843Z,7.50
2022-12-04T14:51:35.993Z,7.50
2022-12-04T14:54:09.380Z,7.53
2022-12-04T14:56:56.404Z,7.52
2022-12-04T14:59:22.384Z,7.46
2022-12-04T15:01:48.405Z,7.45
2022-12-04T15:04:26.781Z,7.42
2022-12-04T15:06:53.153Z,7.39
2022-12-04T15:09:42.989Z,7.37
2022-12-04T15:12:34.956Z,7.33
2022-12-04T15:15:02.157Z,7.30
2022-12-04T15:17:26.161Z,7.28
2022-12-04T15:19:49.182Z,7.26
2022-12-04T15:22:25.037Z,7.23
2022-12-04T15:24:48.172Z,7.26
2022-12-04T15:27:12.927Z,7.16
2022-12-04T15:29:41.134Z,7.11
2022-12-04T15:32:12.016Z,7.07
2022-12-04T15:34:42.789Z,7.05
2022-12-04T15:37:22.671Z,7.01
2022-12-04T15:39:45.846Z,6.99
2022-12-04T15:42:19.142Z,6.98
2022-12-04T15:45:01.507Z,7.01
2022-12-04T15:47:26.574Z,7.02
2022-12-04T15:49:49.752Z,7.01
2022-12-04T15:52:17.065Z,6.98
2022-12-04T15:54:45.959Z,6.99
2022-12-04T15:57:40.300Z,6.98
2022-12-04T16:00:08.032Z,6.99
2022-12-04T16:02:42.924Z,7.02
2022-12-04T16:05:28.627Z,7.01
2022-12-04T16:07:53.711Z,7.08
2022-12-04T16:10:23.691Z,6.95
2022-12-04T16:13:01.972Z,6.98
2022-12-04T16:15:27.527Z,6.98
2022-12-04T16:17:50.951Z,6.99
2022-12-04T16:20:14.387Z,6.97
2022-12-04T16:22:45.318Z,6.97
2022-12-04T16:25:13.614Z,6.99
2022-12-04T16:27:39.529Z,6.97
2022-12-04T16:30:02.394Z,6.87
2022-12-04T16:32:30.866Z,6.87
2022-12-04T16:34:53.940Z,6.92
2022-12-04T16:37:19.872Z,6.88
2022-12-04T16:39:42.991Z,6.87
2022-12-04T16:42:14.546Z,6.83
2022-12-04T16:44:37.312Z,6.81
2022-12-04T16:47:00.196Z,6.83
2022-12-04T16:49:23.240Z,6.80
2022-12-04T16:51:51.030Z,6.78
2022-12-04T16:54:14.109Z,6.77
2022-12-04T16:56:36.987Z,6.77
2022-12-04T16:59:00.313Z,6.80
2022-12-04T17:01:30.734Z,6.76
2022-12-04T17:03:53.786Z,6.70
2022-12-04T17:06:17.719Z,6.66
2022-12-04T17:08:41.002Z,6.67
2022-12-04T17:11:04.107Z,6.66
2022-12-04T17:13:26.977Z,6.63
2022-12-04T17:15:50.005Z,6.61
2022-12-04T17:18:19.238Z,6.58
2022-12-04T17:20:44.575Z,6.61
2022-12-04T17:23:10.586Z,6.57
2022-12-04T17:25:33.376Z,6.57
2022-12-04T17:27:56.892Z,6.54
2022-12-04T17:30:20.265Z,6.51
2022-12-04T17:32:43.251Z,6.56
2022-12-04T17:35:07.930Z,6.51
2022-12-04T17:37:33.245Z,6.54
2022-12-04T17:39:55.871Z,6.51
2022-12-04T17:42:18.812Z,6.54
2022-12-04T17:44:41.728Z,6.50
2022-12-04T17:47:04.691Z,6.54
2022-12-04T17:49:28.229Z,6.50
2022-12-04T17:51:51.146Z,6.46
2022-12-04T17:54:14.078Z,6.49
2022-12-04T17:56:36.995Z,6.49
2022-12-04T17:58:59.577Z,6.42
2022-12-04T18:01:25.218Z,6.43
2022-12-04T18:03:56.140Z,6.46
2022-12-04T18:06:31.392Z,6.39
2022-12-04T18:08:55.188Z,6.40
2022-12-04T18:11:20.854Z,6.39
2022-12-04T18:13:43.721Z,6.37
2022-12-04T18:16:09.870Z,6.34
2022-12-04T18:18:33.200Z,6.32
2022-12-04T18:21:10.780Z,6.29
2022-12-04T18:23:33.683Z,6.34
2022-12-04T18:25:58.266Z,6.30
2022-12-04T18:28:21.660Z,6.30
2022-12-04T18:30:44.498Z,6.37
2022-12-04T18:33:07.628Z,6.30
2022-12-04T18:35:30.444Z,6.34
2022-12-04T18:37:53.582Z,6.32
2022-12-04T18:40:16.587Z,6.28
2022-12-04T18:42:39.541Z,6.28
2022-12-04T18:45:02.427Z,6.32
2022-12-04T18:47:27.004Z,6.28
2022-12-04T18:49:49.923Z,6.32
2022-12-04T18:52:12.853Z,6.25
2022-12-04T18:54:35.631Z,6.28
2022-12-04T18:56:58.375Z,6.28
2022-12-04T18:59:26.304Z,6.26
2022-12-04T19:01:53.229Z,6.28
2022-12-04T19:04:18.408Z,6.29
2022-12-04T19:06:44.145Z,6.25
2022-12-04T19:09:12.280Z,6.26
2022-12-04T19:11:36.147Z,6.26
2022-12-04T19:13:59.988Z,6.26
2022-12-04T19:16:23.026Z,6.29
2022-12-04T19:18:46.867Z,6.28
2022-12-04T19:21:09.717Z,6.29
2022-12-04T19:23:32.908Z,6.32
2022-12-04T19:25:57.300Z,6.34
2022-12-04T19:28:20.182Z,6.36
2022-12-04T19:30:43.123Z,6.37
2022-12-04T19:33:06.523Z,6.37
2022-12-04T19:35:29.765Z,6.47
2022-12-04T19:37:53.235Z,6.49
2022-12-04T19:40:16.250Z,6.49
2022-12-04T19:42:39.973Z,6.34
2022-12-04T19:45:03.317Z,6.32
2022-12-04T19:47:26.587Z,6.39
2022-12-04T19:49:49.487Z,6.37
2022-12-04T19:52:12.361Z,6.42
2022-12-04T19:54:35.225Z,6.39
2022-12-04T19:56:58.071Z,6.34
2022-12-04T19:59:21.012Z,6.32
2022-12-04T20:01:43.961Z,6.40
2022-12-04T20:04:08.286Z,6.47
2022-12-04T20:06:34.971Z,6.39
2022-12-04T20:09:00.394Z,6.34
2022-12-04T20:11:24.201Z,6.30
2022-12-04T20:13:48.608Z,6.26
2022-12-04T20:16:14.060Z,6.23
2022-12-04T20:18:39.467Z,6.22
2022-12-04T20:21:04.091Z,6.16
2022-12-04T20:23:28.091Z,6.18
2022-12-04T20:25:50.947Z,6.13
2022-12-04T20:28:14.681Z,6.11
2022-12-04T20:30:37.669Z,6.08
2022-12-04T20:33:00.573Z,6.06
2022-12-04T20:35:23.410Z,5.99
2022-12-04T20:37:47.449Z,6.02
2022-12-04T20:40:10.817Z,6.15
2022-12-04T20:42:34.720Z,6.06
2022-12-04T20:44:57.946Z,6.06
2022-12-04T20:47:22.212Z,6.11
2022-12-04T20:49:45.121Z,6.06
2022-12-04T20:52:08.064Z,6.08
2022-12-04T20:54:30.625Z,6.12
2022-12-04T20:56:53.616Z,6.08
2022-12-04T20:59:18.643Z,6.01
2022-12-04T21:01:41.863Z,6.18
2022-12-04T21:04:05.991Z,6.05
2022-12-04T21:06:34.837Z,6.05
2022-12-04T21:09:05.667Z,5.98
2022-12-04T21:11:32.051Z,6.04
2022-12-04T21:14:14.907Z,6.01
2022-12-04T21:16:37.603Z,6.04
2022-12-04T21:19:00.839Z,6.11
2022-12-04T21:21:25.866Z,6.12
2022-12-04T21:23:48.655Z,6.16
2022-12-04T21:26:11.390Z,6.08
2022-12-04T21:28:33.950Z,6.22
2022-12-04T21:31:04.856Z,6.23
2022-12-04T21:33:29.223Z,6.16
2022-12-04T21:35:51.804Z,6.16
2022-12-04T21:38:15.409Z,6.06
2022-12-04T21:40:42.391Z,6.18
2022-12-04T21:43:05.241Z,6.08
2022-12-04T21:45:27.956Z,6.12
2022-12-04T21:47:50.547Z,6.19
2022-12-04T21:50:13.229Z,6.11
2022-12-04T21:52:35.753Z,5.97
2022-12-04T21:54:58.297Z,5.95
2022-12-04T21:57:22.190Z,6.08
2022-12-04T21:59:44.852Z,6.09
2022-12-04T22:02:07.737Z,6.01
2022-12-04T22:04:30.496Z,5.99
2022-12-04T22:06:53.055Z,5.98
2022-12-04T22:09:16.401Z,5.92
2022-12-04T22:11:41.612Z,6.05
2022-12-04T22:14:04.683Z,6.01
2022-12-04T22:16:30.570Z,5.90
2022-12-04T22:18:56.073Z,5.75
2022-12-04T22:21:22.102Z,5.71
2022-12-04T22:23:44.785Z,5.78
2022-12-04T22:26:10.016Z,5.75
2022-12-04T22:28:33.131Z,5.68
2022-12-04T22:30:55.837Z,5.70
2022-12-04T22:33:18.729Z,5.67
2022-12-04T22:35:41.244Z,5.64
2022-12-04T22:38:03.968Z,5.68
2022-12-04T22:40:26.826Z,5.64
2022-12-04T22:42:49.497Z,5.61
2022-12-04T22:45:12.173Z,5.60
2022-12-04T22:47:34.878Z,5.58
2022-12-04T22:49:57.755Z,5.61
2022-12-04T22:52:20.588Z,5.60
2022-12-04T22:54:43.196Z,5.58
2022-12-04T22:57:05.743Z,5.61
2022-12-04T22:59:28.527Z,5.67
2022-12-04T23:01:51.212Z,5.70
2022-12-04T23:04:13.800Z,5.81
2022-12-04T23:06:36.516Z,5.83
2022-12-04T23:09:08.574Z,5.77
2022-12-04T23:11:31.351Z,5.77
2022-12-04T23:13:56.993Z,5.75
2022-12-04T23:16:21.014Z,5.65
2022-12-04T23:18:43.824Z,5.64
2022-12-04T23:21:09.486Z,5.68
2022-12-04T23:23:34.586Z,5.63
2022-12-04T23:25:57.174Z,5.63
2022-12-04T23:28:19.904Z,5.73
2022-12-04T23:30:46.975Z,5.70
2022-12-04T23:33:09.576Z,5.71
2022-12-04T23:35:32.317Z,5.70
2022-12-04T23:37:55.111Z,5.68
2022-12-04T23:40:18.044Z,5.74
2022-12-04T23:42:40.888Z,5.68
2022-12-04T23:45:04.628Z,5.70
2022-12-04T23:47:27.158Z,5.70
2022-12-04T23:49:49.950Z,5.79
2022-12-04T23:52:12.737Z,5.78
2022-12-04T23:54:37.648Z,5.78
2022-12-04T23:57:00.774Z,5.75
2022-12-04T23:59:23.423Z,5.74
